Time;durP1;ratioP1;P1;durP2;ratioP2;P2;SDS_P1;SDS_P2;PMS_P1;PMS_P2;Temp;Humidity;BMP_temperature;BMP_pressure;BME280_temperature;BME280_humidity;BME280_pressure;Samples;Min_cycle;Max_cycle;Signal;HPM_P1;HPM_P2
2023/05/13 00:00:59;;;;;;;15.25;10.68;;;;;;;;;;4420607;32;20021;-67
2023/05/13 00:03:24;;;;;;;10.82;8.77;;;;;;;;;;4422197;32;20030;-66
2023/05/13 00:05:49;;;;;;;14.23;9.05;;;;;;;;;;4421204;32;20133;-65
2023/05/13 00:08:15;;;;;;;10.95;9.50;;;;;;;;;;4422905;32;20391;-66
2023/05/13 00:10:40;;;;;;;9.07;7.30;;;;;;;;;;4422530;32;20387;-67
2023/05/13 00:13:05;;;;;;;11.88;9.23;;;;;;;;;;4420516;32;20037;-67
2023/05/13 00:15:30;;;;;;;10.00;8.30;;;;;;;;;;4421328;32;20014;-66
2023/05/13 00:17:56;;;;;;;9.20;8.30;;;;;;;;;;4422618;32;20022;-67
2023/05/13 00:20:21;;;;;;;14.23;8.50;;;;;;;;;;4420961;32;20802;-67
2023/05/13 00:22:46;;;;;;;8.55;7.35;;;;;;;;;;4421758;32;20014;-67
2023/05/13 00:25:12;;;;;;;11.68;7.68;;;;;;;;;;4422492;32;20441;-67
2023/05/13 00:27:37;;;;;;;11.10;6.62;;;;;;;;;;4421799;32;20372;-67
2023/05/13 00:30:04;;;;;;;8.57;7.07;;;;;;;;;;4420715;32;20480;-67
2023/05/13 00:32:29;;;;;;;10.60;7.18;;;;;;;;;;4421408;32;20378;-67
2023/05/13 00:34:55;;;;;;;9.65;6.00;;;;;;;;;;4420240;32;20149;-67
2023/05/13 00:37:20;;;;;;;9.10;6.37;;;;;;;;;;4409239;32;20022;-67
2023/05/13 00:39:45;;;;;;;9.70;6.03;;;;;;;;;;4405302;32;20034;-67
2023/05/13 00:42:11;;;;;;;7.28;6.20;;;;;;;;;;4407142;32;20045;-67
2023/05/13 00:44:36;;;;;;;6.35;5.68;;;;;;;;;;4404414;32;20026;-67
2023/05/13 00:47:01;;;;;;;10.23;5.65;;;;;;;;;;4405440;32;20049;-66
2023/05/13 00:49:27;;;;;;;8.07;5.30;;;;;;;;;;4418005;32;20082;-66
2023/05/13 00:51:54;;;;;;;8.30;5.97;;;;;;;;;;4421342;32;20060;-66
2023/05/13 00:54:19;;;;;;;9.32;5.28;;;;;;;;;;4421956;32;20415;-66
2023/05/13 00:56:44;;;;;;;8.23;5.25;;;;;;;;;;4420980;32;20063;-66
2023/05/13 00:59:09;;;;;;;9.35;5.37;;;;;;;;;;4422023;32;20021;-67
2023/05/13 01:01:46;;;;;;;8.32;5.15;;;;;;;;;;4421056;32;20049;-66
2023/05/13 01:04:17;;;;;;;8.38;5.07;;;;;;;;;;4421901;32;20019;-67
2023/05/13 01:06:48;;;;;;;9.68;5.18;;;;;;;;;;4420665;32;20095;-67
2023/05/13 01:09:13;;;;;;;7.03;4.28;;;;;;;;;;4422251;32;20467;-67
2023/05/13 01:11:40;;;;;;;7.65;4.93;;;;;;;;;;4420732;32;20034;-67
2023/05/13 01:14:10;;;;;;;8.95;4.80;;;;;;;;;;4421480;32;20129;-68
2023/05/13 01:16:40;;;;;;;8.88;5.72;;;;;;;;;;4418992;32;20048;-66
2023/05/13 01:19:21;;;;;;;9.68;5.68;;;;;;;;;;4420525;32;20099;-67
2023/05/13 01:21:52;;;;;;;9.00;5.70;;;;;;;;;;4420927;32;20042;-68
2023/05/13 01:24:17;;;;;;;7.10;5.43;;;;;;;;;;4420842;32;20026;-66
2023/05/13 01:26:43;;;;;;;8.55;6.22;;;;;;;;;;4419654;32;20119;-68
2023/05/13 01:29:08;;;;;;;7.90;5.85;;;;;;;;;;4419556;32;20478;-66
2023/05/13 01:31:33;;;;;;;10.35;6.43;;;;;;;;;;4420195;32;20091;-66
2023/05/13 01:33:59;;;;;;;11.88;6.25;;;;;;;;;;4421267;32;20073;-65
2023/05/13 01:36:24;;;;;;;13.38;5.95;;;;;;;;;;4420583;32;20030;-67
2023/05/13 01:38:50;;;;;;;10.38;6.50;;;;;;;;;;4421368;32;20045;-67
2023/05/13 01:41:15;;;;;;;9.90;6.18;;;;;;;;;;4421482;32;20053;-66
2023/05/13 01:43:40;;;;;;;10.23;6.55;;;;;;;;;;4419491;32;20030;-66
2023/05/13 01:46:12;;;;;;;8.55;6.95;;;;;;;;;;4421389;32;20025;-67
2023/05/13 01:48:37;;;;;;;10.05;6.85;;;;;;;;;;4421414;32;20052;-67
2023/05/13 01:51:03;;;;;;;13.15;6.70;;;;;;;;;;4420224;32;20081;-66
2023/05/13 01:53:28;;;;;;;8.20;6.57;;;;;;;;;;4420269;32;20368;-66
2023/05/13 01:55:54;;;;;;;10.60;6.97;;;;;;;;;;4419966;32;20432;-66
2023/05/13 01:58:19;;;;;;;10.98;7.43;;;;;;;;;;4421035;32;20064;-66
2023/05/13 02:00:44;;;;;;;14.07;6.60;;;;;;;;;;4421070;32;20379;-67
2023/05/13 02:03:10;;;;;;;9.23;6.18;;;;;;;;;;4421177;32;20080;-66
2023/05/13 02:05:35;;;;;;;8.13;6.87;;;;;;;;;;4421548;32;20035;-67
2023/05/13 02:08:00;;;;;;;7.90;6.53;;;;;;;;;;4420683;32;20094;-67
2023/05/13 02:10:25;;;;;;;9.40;5.93;;;;;;;;;;4421196;32;20411;-66
2023/05/13 02:12:50;;;;;;;11.77;6.68;;;;;;;;;;4419418;32;20026;-67
2023/05/13 02:15:15;;;;;;;14.87;6.23;;;;;;;;;;4419719;32;20034;-66
2023/05/13 02:17:41;;;;;;;10.77;6.20;;;;;;;;;;4419756;32;20204;-67
2023/05/13 02:20:06;;;;;;;9.48;7.12;;;;;;;;;;4420331;32;20090;-67
2023/05/13 02:22:31;;;;;;;9.82;6.90;;;;;;;;;;4419846;32;20371;-67
2023/05/13 02:24:57;;;;;;;11.35;7.40;;;;;;;;;;4422574;32;20363;-66
2023/05/13 02:27:22;;;;;;;12.93;7.05;;;;;;;;;;4423753;32;20078;-66
2023/05/13 02:29:47;;;;;;;11.82;7.15;;;;;;;;;;4424685;32;20340;-66
2023/05/13 02:32:13;;;;;;;12.63;7.43;;;;;;;;;;4422325;32;20061;-68
2023/05/13 02:34:38;;;;;;;9.82;7.53;;;;;;;;;;4423221;32;20022;-67
2023/05/13 02:37:04;;;;;;;11.20;8.15;;;;;;;;;;4422742;32;20065;-66
2023/05/13 02:39:29;;;;;;;8.13;7.30;;;;;;;;;;4420996;32;20056;-66
2023/05/13 02:41:54;;;;;;;9.40;7.72;;;;;;;;;;4423517;32;20030;-67
2023/05/13 02:44:19;;;;;;;8.90;6.45;;;;;;;;;;4422121;32;20056;-66
2023/05/13 02:46:45;;;;;;;11.77;7.62;;;;;;;;;;4422605;32;20164;-66
2023/05/13 02:49:10;;;;;;;14.50;7.50;;;;;;;;;;4423313;32;20258;-66
2023/05/13 02:51:35;;;;;;;9.95;7.80;;;;;;;;;;4421149;32;20034;-67
2023/05/13 02:54:00;;;;;;;13.38;7.45;;;;;;;;;;4423716;32;20092;-66
2023/05/13 02:56:26;;;;;;;10.75;7.80;;;;;;;;;;4420128;32;20469;-68
2023/05/13 02:58:51;;;;;;;14.55;8.80;;;;;;;;;;4421400;32;20046;-67
2023/05/13 03:01:16;;;;;;;11.00;8.63;;;;;;;;;;4421863;32;20110;-67
2023/05/13 03:03:41;;;;;;;9.30;8.40;;;;;;;;;;4423335;32;20060;-66
2023/05/13 03:06:07;;;;;;;16.80;9.37;;;;;;;;;;4422586;32;20048;-66
2023/05/13 03:08:32;;;;;;;12.77;8.20;;;;;;;;;;4421358;32;20591;-66
2023/05/13 03:10:57;;;;;;;11.77;9.43;;;;;;;;;;4421493;32;20053;-66
2023/05/13 03:13:22;;;;;;;13.20;9.20;;;;;;;;;;4423298;32;20168;-66
2023/05/13 03:15:48;;;;;;;10.45;9.35;;;;;;;;;;4423469;32;20410;-66
2023/05/13 03:18:13;;;;;;;10.57;9.35;;;;;;;;;;4421122;32;20076;-67
2023/05/13 03:20:38;;;;;;;13.02;10.10;;;;;;;;;;4421276;32;20079;-67
2023/05/13 03:23:03;;;;;;;15.27;10.55;;;;;;;;;;4422274;32;20120;-67
2023/05/13 03:25:28;;;;;;;12.10;10.63;;;;;;;;;;4423640;32;20030;-67
2023/05/13 03:27:54;;;;;;;15.60;10.60;;;;;;;;;;4422058;32;20046;-67
2023/05/13 03:30:19;;;;;;;12.80;10.32;;;;;;;;;;4422732;32;20181;-67
2023/05/13 03:32:44;;;;;;;18.60;10.95;;;;;;;;;;4423190;32;20034;-67
2023/05/13 03:35:09;;;;;;;15.00;10.65;;;;;;;;;;4422118;32;20025;-67
2023/05/13 03:37:34;;;;;;;12.15;10.68;;;;;;;;;;4421477;32;20449;-67
2023/05/13 03:40:00;;;;;;;11.40;10.30;;;;;;;;;;4422671;32;20053;-67
2023/05/13 03:42:25;;;;;;;17.25;10.85;;;;;;;;;;4422874;32;20026;-67
2023/05/13 03:44:50;;;;;;;18.95;12.68;;;;;;;;;;4420455;32;20025;-67
2023/05/13 03:47:15;;;;;;;16.02;11.65;;;;;;;;;;4421653;32;20056;-67
2023/05/13 03:49:40;;;;;;;16.70;10.45;;;;;;;;;;4421150;32;20034;-67
2023/05/13 03:52:08;;;;;;;14.13;11.80;;;;;;;;;;4420903;32;20422;-66
2023/05/13 03:54:34;;;;;;;15.93;11.50;;;;;;;;;;4422388;32;20073;-66
2023/05/13 03:56:59;;;;;;;16.40;11.60;;;;;;;;;;4420856;32;20025;-67
2023/05/13 03:59:24;;;;;;;14.25;11.12;;;;;;;;;;4422376;32;20436;-67
2023/05/13 04:01:49;;;;;;;15.32;11.18;;;;;;;;;;4421014;32;20079;-67
2023/05/13 04:04:15;;;;;;;19.60;11.45;;;;;;;;;;4422607;32;20042;-67
2023/05/13 04:06:40;;;;;;;;;;;;;;;;;;4422046;32;20076;-67
2023/05/13 04:09:05;;;;;;;13.25;11.77;;;;;;;;;;4422500;32;19937;-67
2023/05/13 04:11:30;;;;;;;18.37;12.15;;;;;;;;;;4421084;32;20060;-67
2023/05/13 04:13:56;;;;;;;16.98;11.55;;;;;;;;;;4422745;32;20091;-66
2023/05/13 04:16:21;;;;;;;18.83;12.45;;;;;;;;;;4422090;32;20093;-66
2023/05/13 04:18:46;;;;;;;;;;;;;;;;;;4423183;32;20100;-66
2023/05/13 04:21:11;;;;;;;18.75;12.88;;;;;;;;;;4422302;32;20314;-66
2023/05/13 04:23:37;;;;;;;13.17;11.63;;;;;;;;;;4422386;32;20564;-66
2023/05/13 04:26:02;;;;;;;17.17;12.73;;;;;;;;;;4421865;32;20134;-66
2023/05/13 04:28:27;;;;;;;17.70;12.85;;;;;;;;;;4421561;32;20030;-66
2023/05/13 04:30:53;;;;;;;15.13;12.60;;;;;;;;;;4420893;32;20083;-66
2023/05/13 04:33:18;;;;;;;16.30;12.93;;;;;;;;;;4421951;32;20117;-68
2023/05/13 04:35:43;;;;;;;17.05;13.38;;;;;;;;;;4419536;32;20092;-66
2023/05/13 04:38:08;;;;;;;19.25;14.63;;;;;;;;;;4420075;32;20046;-67
2023/05/13 04:40:34;;;;;;;20.90;14.15;;;;;;;;;;4420060;32;20061;-66
2023/05/13 04:42:59;;;;;;;18.10;14.60;;;;;;;;;;4419168;32;20030;-66
2023/05/13 04:45:24;;;;;;;16.33;14.20;;;;;;;;;;4420981;32;20033;-66
2023/05/13 04:47:49;;;;;;;17.45;14.68;;;;;;;;;;4419632;32;20038;-66
2023/05/13 04:50:15;;;;;;;;;;;;;;;;;;4420191;32;20037;-65
2023/05/13 04:52:41;;;;;;;21.15;14.07;;;;;;;;;;4421889;32;19941;-66
2023/05/13 04:55:07;;;;;;;17.90;14.27;;;;;;;;;;4420145;32;20326;-66
2023/05/13 04:57:33;;;;;;;15.77;14.07;;;;;;;;;;4421300;32;20109;-67
2023/05/13 04:59:58;;;;;;;17.83;15.13;;;;;;;;;;4421321;32;20057;-66
2023/05/13 05:02:23;;;;;;;24.17;14.67;;;;;;;;;;4419879;32;20456;-66
2023/05/13 05:04:48;;;;;;;18.80;14.60;;;;;;;;;;4420245;32;20126;-67
2023/05/13 05:07:13;;;;;;;18.60;14.17;;;;;;;;;;4422049;32;20515;-66
2023/05/13 05:09:38;;;;;;;22.65;15.20;;;;;;;;;;4421631;32;20121;-66
2023/05/13 05:12:03;;;;;;;;;;;;;;;;;;4421259;32;20099;-66
2023/05/13 05:14:29;;;;;;;19.55;13.98;;;;;;;;;;4419945;32;19941;-66
2023/05/13 05:16:54;;;;;;;16.92;13.57;;;;;;;;;;4420069;32;20430;-66
2023/05/13 05:19:22;;;;;;;17.65;14.13;;;;;;;;;;4420409;32;20072;-66
2023/05/13 05:21:48;;;;;;;17.80;13.82;;;;;;;;;;4419861;32;20134;-65
2023/05/13 05:24:13;;;;;;;25.55;15.10;;;;;;;;;;4420190;32;20060;-66
2023/05/13 05:26:38;;;;;;;15.95;14.30;;;;;;;;;;4420795;32;20048;-66
2023/05/13 05:29:03;;;;;;;17.37;14.43;;;;;;;;;;4419891;32;20065;-67
2023/05/13 05:31:29;;;;;;;16.52;13.43;;;;;;;;;;4421213;32;20030;-67
2023/05/13 05:33:55;;;;;;;20.52;14.50;;;;;;;;;;4421589;32;20064;-66
2023/05/13 05:36:20;;;;;;;20.20;14.18;;;;;;;;;;4419952;32;20053;-66
2023/05/13 05:38:46;;;;;;;17.92;13.73;;;;;;;;;;4419626;32;20055;-66
2023/05/13 05:41:12;;;;;;;19.83;14.07;;;;;;;;;;4421251;32;20087;-66
2023/05/13 05:43:37;;;;;;;22.55;14.25;;;;;;;;;;4419629;32;20052;-66
2023/05/13 05:46:03;;;;;;;18.45;14.50;;;;;;;;;;4419730;32;20093;-67
2023/05/13 05:48:28;;;;;;;16.83;14.10;;;;;;;;;;4419451;32;20128;-66
2023/05/13 05:50:55;;;;;;;20.60;14.38;;;;;;;;;;4420804;32;20437;-66
2023/05/13 05:53:20;;;;;;;20.65;13.68;;;;;;;;;;4421190;32;20065;-66
2023/05/13 05:55:45;;;;;;;17.15;14.27;;;;;;;;;;4419706;32;20374;-66
2023/05/13 05:58:13;;;;;;;17.60;14.05;;;;;;;;;;4419888;32;20115;-65
2023/05/13 06:00:39;;;;;;;19.50;13.73;;;;;;;;;;4424220;32;20045;-66
2023/05/13 06:03:04;;;;;;;18.48;13.32;;;;;;;;;;4422606;32;20060;-66
2023/05/13 06:05:29;;;;;;;15.63;12.90;;;;;;;;;;4422276;32;20049;-66
2023/05/13 06:07:54;;;;;;;14.65;12.68;;;;;;;;;;4422842;32;20029;-66
2023/05/13 06:10:19;;;;;;;23.98;13.95;;;;;;;;;;4423383;32;20344;-66
2023/05/13 06:12:45;;;;;;;16.62;12.68;;;;;;;;;;4422649;32;20053;-66
2023/05/13 06:15:10;;;;;;;16.00;14.23;;;;;;;;;;4423503;32;20022;-66
2023/05/13 06:17:35;;;;;;;16.37;13.40;;;;;;;;;;4422218;32;20037;-66
2023/05/13 06:20:01;;;;;;;16.23;12.68;;;;;;;;;;4421556;32;20502;-66
2023/05/13 06:22:26;;;;;;;21.20;13.27;;;;;;;;;;4422835;32;20363;-67
2023/05/13 06:24:51;;;;;;;18.62;13.30;;;;;;;;;;4424072;32;20030;-67
2023/05/13 06:27:16;;;;;;;18.62;12.45;;;;;;;;;;4424222;32;20374;-67
2023/05/13 06:29:41;;;;;;;16.77;13.13;;;;;;;;;;4424069;32;20449;-66
2023/05/13 06:32:07;;;;;;;22.83;13.32;;;;;;;;;;4422648;32;20404;-67
2023/05/13 06:34:32;;;;;;;14.38;12.93;;;;;;;;;;4421247;32;20095;-66
2023/05/13 06:36:57;;;;;;;15.13;12.70;;;;;;;;;;4415402;32;20431;-67
2023/05/13 06:39:22;;;;;;;16.12;14.05;;;;;;;;;;4417259;32;20188;-67
2023/05/13 06:41:47;;;;;;;16.27;12.93;;;;;;;;;;4418593;32;20129;-66
2023/05/13 06:44:13;;;;;;;15.02;12.88;;;;;;;;;;4417392;32;20079;-67
2023/05/13 06:46:38;;;;;;;15.43;12.48;;;;;;;;;;4423725;32;20033;-67
2023/05/13 06:49:03;;;;;;;20.50;13.00;;;;;;;;;;4421801;32;20393;-67
2023/05/13 06:51:31;;;;;;;19.45;12.63;;;;;;;;;;4413740;32;20080;-66
2023/05/13 06:53:56;;;;;;;18.70;12.40;;;;;;;;;;4418235;32;20060;-66
2023/05/13 06:56:21;;;;;;;14.93;12.73;;;;;;;;;;4422687;32;20403;-66
2023/05/13 06:58:48;;;;;;;16.75;12.57;;;;;;;;;;4423222;32;20076;-66
2023/05/13 07:01:13;;;;;;;17.05;11.70;;;;;;;;;;4423351;32;20071;-68
2023/05/13 07:03:39;;;;;;;18.65;13.18;;;;;;;;;;4423339;32;20042;-67
2023/05/13 07:06:04;;;;;;;16.30;11.97;;;;;;;;;;4421826;32;20424;-66
2023/05/13 07:08:29;;;;;;;17.17;11.27;;;;;;;;;;4422130;32;20157;-66
2023/05/13 07:10:54;;;;;;;12.18;10.63;;;;;;;;;;4421734;32;20479;-67
2023/05/13 07:13:20;;;;;;;11.82;10.50;;;;;;;;;;4421389;32;20469;-67
2023/05/13 07:15:46;;;;;;;18.10;10.68;;;;;;;;;;4420155;32;20183;-66
2023/05/13 07:18:11;;;;;;;11.93;10.57;;;;;;;;;;4420970;32;20069;-67
2023/05/13 07:20:36;;;;;;;15.85;9.90;;;;;;;;;;4421009;32;20026;-68
2023/05/13 07:23:01;;;;;;;15.10;10.10;;;;;;;;;;4417220;32;20367;-66
2023/05/13 07:25:26;;;;;;;11.52;9.85;;;;;;;;;;4405114;32;20058;-67
2023/05/13 07:27:52;;;;;;;11.98;10.77;;;;;;;;;;4420968;32;20086;-67
2023/05/13 07:30:17;;;;;;;13.10;9.32;;;;;;;;;;4421717;32;20089;-66
2023/05/13 07:32:43;;;;;;;12.20;8.70;;;;;;;;;;4420551;32;20157;-67
2023/05/13 07:35:09;;;;;;;11.25;9.45;;;;;;;;;;4421483;32;20052;-66
2023/05/13 07:37:35;;;;;;;13.55;8.85;;;;;;;;;;4422642;32;20138;-67
2023/05/13 07:40:01;;;;;;;11.98;8.07;;;;;;;;;;4422745;32;20034;-67
2023/05/13 07:42:28;;;;;;;12.10;8.85;;;;;;;;;;4420884;32;20079;-67
2023/05/13 07:44:54;;;;;;;13.27;8.23;;;;;;;;;;4422393;32;20038;-67
2023/05/13 07:47:19;;;;;;;13.25;8.63;;;;;;;;;;4421125;32;20364;-67
2023/05/13 07:49:44;;;;;;;12.57;8.23;;;;;;;;;;4422317;32;20042;-67
2023/05/13 07:52:09;;;;;;;13.77;7.62;;;;;;;;;;4420510;32;20030;-67
2023/05/13 07:54:35;;;;;;;23.70;8.75;;;;;;;;;;4422631;32;20025;-66
2023/05/13 07:57:00;;;;;;;11.85;8.82;;;;;;;;;;4420412;32;20411;-67
2023/05/13 07:59:25;;;;;;;11.05;8.60;;;;;;;;;;4422385;32;20093;-65
2023/05/13 08:01:50;;;;;;;13.70;7.82;;;;;;;;;;4420726;32;20034;-68
2023/05/13 08:04:15;;;;;;;12.00;7.82;;;;;;;;;;4420246;32;20030;-67
2023/05/13 08:06:41;;;;;;;11.73;7.57;;;;;;;;;;4420885;32;20109;-67
2023/05/13 08:09:08;;;;;;;14.43;8.35;;;;;;;;;;4421986;32;20566;-66
2023/05/13 08:11:33;;;;;;;13.70;8.07;;;;;;;;;;4421218;32;20227;-66
2023/05/13 08:13:58;;;;;;;11.10;7.32;;;;;;;;;;4420171;32;20038;-65
2023/05/13 08:16:23;;;;;;;10.75;7.35;;;;;;;;;;4418356;32;20427;-66
2023/05/13 08:18:48;;;;;;;11.33;6.87;;;;;;;;;;4421638;32;20056;-66
2023/05/13 08:21:14;;;;;;;16.87;7.30;;;;;;;;;;4420331;32;20193;-67
2023/05/13 08:23:39;;;;;;;10.82;6.55;;;;;;;;;;4420183;32;20474;-67
2023/05/13 08:26:04;;;;;;;13.80;8.27;;;;;;;;;;4420834;32;20091;-67
2023/05/13 08:28:29;;;;;;;13.57;7.97;;;;;;;;;;4420920;32;20053;-66
2023/05/13 08:31:01;;;;;;;9.82;6.90;;;;;;;;;;4419969;32;20056;-67
2023/05/13 08:33:26;;;;;;;14.65;7.43;;;;;;;;;;4421146;32;20029;-66
2023/05/13 08:35:52;;;;;;;11.12;7.12;;;;;;;;;;4419592;32;20434;-67
2023/05/13 08:38:17;;;;;;;10.75;7.07;;;;;;;;;;4421094;32;20042;-66
2023/05/13 08:40:42;;;;;;;9.93;6.97;;;;;;;;;;4421392;32;20050;-67
2023/05/13 08:43:08;;;;;;;10.55;7.57;;;;;;;;;;4420704;32;20021;-67
2023/05/13 08:45:34;;;;;;;10.23;6.68;;;;;;;;;;4421277;32;20087;-66
2023/05/13 08:48:00;;;;;;;10.43;7.78;;;;;;;;;;4419839;32;20026;-66
2023/05/13 08:50:29;;;;;;;12.68;7.28;;;;;;;;;;4421422;32;20103;-66
2023/05/13 08:52:56;;;;;;;11.57;7.65;;;;;;;;;;4420288;32;20081;-65
2023/05/13 08:55:22;;;;;;;12.13;7.03;;;;;;;;;;4408948;32;20076;-66
2023/05/13 08:57:47;;;;;;;12.05;7.50;;;;;;;;;;4405065;32;20081;-67
2023/05/13 09:00:13;;;;;;;14.05;7.12;;;;;;;;;;4417597;32;20064;-67
2023/05/13 09:02:38;;;;;;;13.23;6.45;;;;;;;;;;4419638;32;20397;-67
2023/05/13 09:05:07;;;;;;;10.52;7.35;;;;;;;;;;4421751;32;20096;-66
2023/05/13 09:07:36;;;;;;;13.48;8.10;;;;;;;;;;4422152;32;20092;-66
2023/05/13 09:10:02;;;;;;;11.68;7.57;;;;;;;;;;4422364;32;20033;-68
2023/05/13 09:12:46;;;;;;;9.55;6.97;;;;;;;;;;4421247;32;20212;-67
2023/05/13 09:15:13;;;;;;;12.95;7.35;;;;;;;;;;4421710;32;20038;-68
2023/05/13 09:17:41;;;;;;;10.63;6.68;;;;;;;;;;4421499;32;20056;-68
2023/05/13 09:20:07;;;;;;;10.50;6.22;;;;;;;;;;4419633;32;20423;-67
2023/05/13 09:22:33;;;;;;;13.05;6.90;;;;;;;;;;4419781;32;20033;-66
2023/05/13 09:24:58;;;;;;;11.18;6.70;;;;;;;;;;4420329;32;20045;-66
2023/05/13 09:27:35;;;;;;;11.07;6.25;;;;;;;;;;4421176;32;20496;-67
2023/05/13 09:30:00;;;;;;;8.48;6.20;;;;;;;;;;4419641;32;20029;-65
2023/05/13 09:32:25;;;;;;;9.90;7.40;;;;;;;;;;4419154;32;20424;-67
2023/05/13 09:34:51;;;;;;;13.67;6.40;;;;;;;;;;4420929;32;20148;-66
2023/05/13 09:37:17;;;;;;;8.52;5.95;;;;;;;;;;4420895;32;20148;-67
2023/05/13 09:39:43;;;;;;;13.43;6.57;;;;;;;;;;4418747;32;20060;-68
2023/05/13 09:42:15;;;;;;;10.32;6.53;;;;;;;;;;4420018;32;20037;-67
2023/05/13 09:44:41;;;;;;;15.15;6.45;;;;;;;;;;4420631;32;20026;-66
2023/05/13 09:47:10;;;;;;;12.43;6.05;;;;;;;;;;4419656;32;20064;-66
2023/05/13 09:49:36;;;;;;;9.73;5.93;;;;;;;;;;4420518;32;20136;-67
2023/05/13 09:52:01;;;;;;;8.50;6.30;;;;;;;;;;4420059;32;20059;-67
2023/05/13 09:54:32;;;;;;;8.75;6.78;;;;;;;;;;4419161;32;20026;-67
2023/05/13 09:56:58;;;;;;;13.70;6.30;;;;;;;;;;4421439;32;20446;-66
2023/05/13 09:59:23;;;;;;;11.82;6.47;;;;;;;;;;4417654;32;20030;-65
2023/05/13 10:01:49;;;;;;;7.85;6.60;;;;;;;;;;4420974;32;20675;-66
2023/05/13 10:04:14;;;;;;;10.30;6.90;;;;;;;;;;4419051;32;20070;-68
2023/05/13 10:06:39;;;;;;;10.52;6.25;;;;;;;;;;4419477;32;20046;-67
2023/05/13 10:09:05;;;;;;;10.85;6.18;;;;;;;;;;4418191;32;20069;-67
2023/05/13 10:11:32;;;;;;;13.07;7.50;;;;;;;;;;4420090;32;20092;-67
2023/05/13 10:13:59;;;;;;;11.77;6.57;;;;;;;;;;4418874;32;20026;-67
2023/05/13 10:16:24;;;;;;;9.70;6.37;;;;;;;;;;4417988;32;20064;-66
2023/05/13 10:18:50;;;;;;;10.68;5.90;;;;;;;;;;4415445;32;20030;-67
2023/05/13 10:21:16;;;;;;;10.95;6.35;;;;;;;;;;4415873;32;20108;-66
2023/05/13 10:23:41;;;;;;;11.32;7.05;;;;;;;;;;4412196;32;20039;-65
2023/05/13 10:26:07;;;;;;;8.43;6.43;;;;;;;;;;4420998;32;20313;-66
2023/05/13 10:28:33;;;;;;;9.10;6.12;;;;;;;;;;4418525;32;20034;-67
2023/05/13 10:30:58;;;;;;;20.80;6.78;;;;;;;;;;4419638;32;20365;-67
2023/05/13 10:33:23;;;;;;;9.55;6.70;;;;;;;;;;4417719;32;20399;-67
2023/05/13 10:36:10;;;;;;;11.32;7.70;;;;;;;;;;4405913;32;20098;-67
2023/05/13 10:38:38;;;;;;;10.88;7.60;;;;;;;;;;4379817;32;20100;-67
2023/05/13 10:41:03;;;;;;;9.98;6.62;;;;;;;;;;4403832;32;20380;-67
2023/05/13 10:43:30;;;;;;;9.02;6.62;;;;;;;;;;4409024;32;20097;-67
2023/05/13 10:45:56;;;;;;;9.23;5.87;;;;;;;;;;4420655;32;20187;-68
2023/05/13 10:48:22;;;;;;;9.35;6.25;;;;;;;;;;4423938;32;20034;-68
2023/05/13 10:51:00;;;;;;;11.35;6.55;;;;;;;;;;4423337;32;20352;-67
2023/05/13 10:53:38;;;;;;;8.07;6.62;;;;;;;;;;4421458;32;20071;-67
2023/05/13 10:56:06;;;;;;;11.68;6.82;;;;;;;;;;4421959;32;20460;-66
2023/05/13 10:58:33;;;;;;;9.98;6.80;;;;;;;;;;4423408;32;20483;-66
2023/05/13 11:01:11;;;;;;;11.73;6.05;;;;;;;;;;4422762;32;20056;-67
2023/05/13 11:03:38;;;;;;;11.73;6.82;;;;;;;;;;4422911;32;20068;-67
2023/05/13 11:06:12;;;;;;;11.48;6.80;;;;;;;;;;4421664;32;20163;-67
2023/05/13 11:08:47;;;;;;;10.05;6.68;;;;;;;;;;4421830;32;20026;-67
2023/05/13 11:11:21;;;;;;;14.35;6.57;;;;;;;;;;4423249;32;20370;-67
2023/05/13 11:13:50;;;;;;;14.10;6.75;;;;;;;;;;4421895;32;20075;-67
2023/05/13 11:16:16;;;;;;;8.52;5.85;;;;;;;;;;4421848;32;20030;-67
2023/05/13 11:18:42;;;;;;;12.95;6.68;;;;;;;;;;4422532;32;20436;-67
2023/05/13 11:21:07;;;;;;;8.90;5.97;;;;;;;;;;4422392;32;20068;-66
2023/05/13 11:23:48;;;;;;;8.40;5.47;;;;;;;;;;4420752;32;20064;-67
2023/05/13 11:26:15;;;;;;;7.25;5.80;;;;;;;;;;4423162;32;20332;-68
2023/05/13 11:28:59;;;;;;;7.78;5.15;;;;;;;;;;4421562;32;20030;-67
2023/05/13 11:31:40;;;;;;;12.50;5.50;;;;;;;;;;4421063;32;20073;-67
2023/05/13 11:34:09;;;;;;;9.88;5.25;;;;;;;;;;4421617;32;20084;-67
2023/05/13 11:36:39;;;;;;;12.40;5.68;;;;;;;;;;4421334;32;20065;-67
2023/05/13 11:39:06;;;;;;;7.22;4.95;;;;;;;;;;4421807;32;20026;-67
2023/05/13 11:41:32;;;;;;;11.02;5.03;;;;;;;;;;4422358;32;20095;-67
2023/05/13 11:43:58;;;;;;;6.90;5.28;;;;;;;;;;4421818;32;20423;-68
2023/05/13 11:46:24;;;;;;;7.37;4.68;;;;;;;;;;4422256;32;20087;-67
2023/05/13 11:48:50;;;;;;;7.28;5.07;;;;;;;;;;4422235;32;20078;-67
2023/05/13 11:51:17;;;;;;;7.80;5.37;;;;;;;;;;4418982;32;20046;-66
2023/05/13 11:53:42;;;;;;;7.90;4.70;;;;;;;;;;4420208;32;20029;-66
2023/05/13 11:56:11;;;;;;;8.73;5.00;;;;;;;;;;4422381;32;20351;-67
2023/05/13 11:58:36;;;;;;;12.98;5.47;;;;;;;;;;4408225;32;20107;-67
2023/05/13 12:01:02;;;;;;;10.73;5.15;;;;;;;;;;4407681;32;20380;-66
2023/05/13 12:03:27;;;;;;;7.62;4.60;;;;;;;;;;4419767;32;20037;-66
2023/05/13 12:06:02;;;;;;;10.50;5.37;;;;;;;;;;4419990;32;20053;-66
2023/05/13 12:08:27;;;;;;;9.90;4.78;;;;;;;;;;4421495;32;20160;-66
2023/05/13 12:10:52;;;;;;;7.53;5.07;;;;;;;;;;4422166;32;20200;-66
2023/05/13 12:13:18;;;;;;;8.27;5.12;;;;;;;;;;4422027;32;20030;-66
2023/05/13 12:15:44;;;;;;;9.13;4.65;;;;;;;;;;4418471;32;20030;-67
2023/05/13 12:18:09;;;;;;;8.07;5.07;;;;;;;;;;4405565;32;20030;-66
2023/05/13 12:20:34;;;;;;;9.50;5.17;;;;;;;;;;4406354;32;20089;-66
2023/05/13 12:23:00;;;;;;;12.93;5.00;;;;;;;;;;4406894;32;20118;-66
2023/05/13 12:25:32;;;;;;;8.25;5.30;;;;;;;;;;4405696;32;20052;-67
2023/05/13 12:28:12;;;;;;;9.90;5.62;;;;;;;;;;4407135;32;20099;-67
2023/05/13 12:30:58;;;;;;;8.50;5.03;;;;;;;;;;4414691;32;20068;-67
2023/05/13 12:33:24;;;;;;;7.70;5.07;;;;;;;;;;4421495;32;20060;-67
2023/05/13 12:35:53;;;;;;;8.02;5.12;;;;;;;;;;4421786;32;20064;-67
2023/05/13 12:38:19;;;;;;;10.98;5.55;;;;;;;;;;4421987;32;20097;-67
2023/05/13 12:40:45;;;;;;;7.97;5.10;;;;;;;;;;4419140;32;20073;-67
2023/05/13 12:43:12;;;;;;;7.75;5.30;;;;;;;;;;4421171;32;20400;-67
2023/05/13 12:45:38;;;;;;;12.55;6.85;;;;;;;;;;4420894;32;20386;-67
2023/05/13 12:48:03;;;;;;;10.63;6.20;;;;;;;;;;4420006;32;20041;-66
2023/05/13 12:50:28;;;;;;;9.52;5.78;;;;;;;;;;4421234;32;20106;-67
2023/05/13 12:52:54;;;;;;;9.07;5.87;;;;;;;;;;4421462;32;20030;-67
2023/05/13 12:55:19;;;;;;;6.12;5.37;;;;;;;;;;4419856;32;20030;-68
2023/05/13 12:58:05;;;;;;;8.88;5.90;;;;;;;;;;4415928;32;20088;-67
2023/05/13 13:00:30;;;;;;;9.10;6.03;;;;;;;;;;4404588;32;20045;-66
2023/05/13 13:02:56;;;;;;;11.47;5.53;;;;;;;;;;4417101;32;20214;-67
2023/05/13 13:05:22;;;;;;;7.45;5.72;;;;;;;;;;4420801;32;20130;-65
2023/05/13 13:07:47;;;;;;;8.07;5.75;;;;;;;;;;4417690;32;20033;-66
2023/05/13 13:10:13;;;;;;;11.63;5.18;;;;;;;;;;4421279;32;20095;-66
2023/05/13 13:12:38;;;;;;;11.70;6.22;;;;;;;;;;4419558;32;20034;-66
2023/05/13 13:15:04;;;;;;;9.98;6.32;;;;;;;;;;4420393;32;20371;-66
2023/05/13 13:17:30;;;;;;;11.70;5.78;;;;;;;;;;4420910;32;20042;-66
2023/05/13 13:19:55;;;;;;;9.70;6.03;;;;;;;;;;4420937;32;20344;-66
2023/05/13 13:22:20;;;;;;;7.83;5.53;;;;;;;;;;4420845;32;20368;-67
2023/05/13 13:24:45;;;;;;;9.57;5.83;;;;;;;;;;4420018;32;20026;-67
2023/05/13 13:27:10;;;;;;;10.65;6.18;;;;;;;;;;4408408;32;20539;-66
2023/05/13 13:29:36;;;;;;;10.15;6.20;;;;;;;;;;4405141;32;20099;-67
2023/05/13 13:32:01;;;;;;;10.32;5.93;;;;;;;;;;4409542;32;20042;-67
2023/05/13 13:34:26;;;;;;;7.85;5.50;;;;;;;;;;4421146;32;20394;-66
2023/05/13 13:36:51;;;;;;;8.43;5.13;;;;;;;;;;4420827;32;20411;-67
2023/05/13 13:39:16;;;;;;;9.27;5.45;;;;;;;;;;4421168;32;20125;-67
2023/05/13 13:41:42;;;;;;;8.43;5.67;;;;;;;;;;4421396;32;20068;-66
2023/05/13 13:44:07;;;;;;;11.85;5.68;;;;;;;;;;4419397;32;20188;-67
2023/05/13 13:46:32;;;;;;;8.85;5.57;;;;;;;;;;4414222;32;20149;-67
2023/05/13 13:48:57;;;;;;;7.78;5.72;;;;;;;;;;4420892;32;20030;-67
2023/05/13 13:51:22;;;;;;;9.27;5.17;;;;;;;;;;4419632;32;20038;-67
2023/05/13 13:53:48;;;;;;;7.20;4.95;;;;;;;;;;4420672;32;20160;-68
2023/05/13 13:56:13;;;;;;;9.88;5.22;;;;;;;;;;4419505;32;20120;-67
2023/05/13 13:58:39;;;;;;;10.50;5.65;;;;;;;;;;4419508;32;20089;-67
2023/05/13 14:01:04;;;;;;;11.23;5.93;;;;;;;;;;4419764;32;20134;-66
2023/05/13 14:03:29;;;;;;;8.27;4.78;;;;;;;;;;4419731;32;20052;-66
2023/05/13 14:05:55;;;;;;;6.43;4.70;;;;;;;;;;4420659;32;20034;-67
2023/05/13 14:08:20;;;;;;;12.75;5.40;;;;;;;;;;4417612;32;20053;-68
2023/05/13 14:10:45;;;;;;;11.27;6.47;;;;;;;;;;4418808;32;20030;-66
2023/05/13 14:13:10;;;;;;;8.57;5.30;;;;;;;;;;4411745;32;20479;-66
2023/05/13 14:15:37;;;;;;;9.13;5.43;;;;;;;;;;4409384;32;20122;-66
2023/05/13 14:18:03;;;;;;;13.02;4.87;;;;;;;;;;4419654;32;20061;-66
2023/05/13 14:20:28;;;;;;;9.00;5.30;;;;;;;;;;4421795;32;20050;-67
2023/05/13 14:22:54;;;;;;;9.43;5.43;;;;;;;;;;4423633;32;20083;-66
2023/05/13 14:25:19;;;;;;;12.20;5.30;;;;;;;;;;4423812;32;20468;-67